sensor_id;sensor_type;location;lat;lon;timestamp;temperature;humidity
79571;DHT22;69034;49.444;7.758;2023-08-20T00:02:10;27.40;66.00
79571;DHT22;69034;49.444;7.758;2023-08-20T00:06:11;27.30;66.00
79571;DHT22;69034;49.444;7.758;2023-08-20T00:10:12;27.20;66.20
79571;DHT22;69034;49.444;7.758;2023-08-20T00:14:16;27.20;66.30
79571;DHT22;69034;49.444;7.758;2023-08-20T00:18:17;27.10;66.40
79571;DHT22;69034;49.444;7.758;2023-08-20T00:22:19;27.10;66.40
79571;DHT22;69034;49.444;7.758;2023-08-20T00:26:21;27.10;66.40
79571;DHT22;69034;49.444;7.758;2023-08-20T00:30:21;27.10;66.50
79571;DHT22;69034;49.444;7.758;2023-08-20T00:34:22;27.00;66.40
79571;DHT22;69034;49.444;7.758;2023-08-20T00:38:23;26.90;66.40
79571;DHT22;69034;49.444;7.758;2023-08-20T00:42:24;26.80;66.60
79571;DHT22;69034;49.444;7.758;2023-08-20T00:46:29;26.60;66.90
79571;DHT22;69034;49.444;7.758;2023-08-20T00:50:29;26.50;67.20
79571;DHT22;69034;49.444;7.758;2023-08-20T00:54:32;26.30;67.30
79571;DHT22;69034;49.444;7.758;2023-08-20T00:58:33;26.20;67.50
79571;DHT22;69034;49.444;7.758;2023-08-20T01:02:34;26.10;67.70
79571;DHT22;69034;49.444;7.758;2023-08-20T01:11:08;26.00;68.00
79571;DHT22;69034;49.444;7.758;2023-08-20T01:15:12;25.90;67.90
79571;DHT22;69034;49.444;7.758;2023-08-20T01:19:17;25.80;68.00
79571;DHT22;69034;49.444;7.758;2023-08-20T01:27:56;25.70;68.30
79571;DHT22;69034;49.444;7.758;2023-08-20T01:31:58;25.60;68.30
79571;DHT22;69034;49.444;7.758;2023-08-20T01:35:59;25.60;68.30
79571;DHT22;69034;49.444;7.758;2023-08-20T01:40:00;25.50;68.40
79571;DHT22;69034;49.444;7.758;2023-08-20T01:44:00;25.40;68.50
79571;DHT22;69034;49.444;7.758;2023-08-20T01:48:01;25.30;68.70
79571;DHT22;69034;49.444;7.758;2023-08-20T01:52:04;25.30;69.10
79571;DHT22;69034;49.444;7.758;2023-08-20T01:56:10;25.20;69.20
79571;DHT22;69034;49.444;7.758;2023-08-20T02:00:12;25.10;69.40
79571;DHT22;69034;49.444;7.758;2023-08-20T02:04:13;25.00;69.60
79571;DHT22;69034;49.444;7.758;2023-08-20T02:08:13;25.00;69.70
79571;DHT22;69034;49.444;7.758;2023-08-20T02:12:14;25.00;69.90
79571;DHT22;69034;49.444;7.758;2023-08-20T02:16:15;24.90;69.90
79571;DHT22;69034;49.444;7.758;2023-08-20T02:20:16;24.90;69.90
79571;DHT22;69034;49.444;7.758;2023-08-20T02:24:17;24.80;70.00
79571;DHT22;69034;49.444;7.758;2023-08-20T02:28:18;24.80;70.10
79571;DHT22;69034;49.444;7.758;2023-08-20T02:32:19;24.80;70.30
79571;DHT22;69034;49.444;7.758;2023-08-20T02:36:19;24.70;70.40
79571;DHT22;69034;49.444;7.758;2023-08-20T02:40:20;24.80;70.40
79571;DHT22;69034;49.444;7.758;2023-08-20T02:44:21;24.90;70.20
79571;DHT22;69034;49.444;7.758;2023-08-20T02:48:21;25.10;69.90
79571;DHT22;69034;49.444;7.758;2023-08-20T02:52:27;25.30;69.70
79571;DHT22;69034;49.444;7.758;2023-08-20T02:56:28;25.40;69.40
79571;DHT22;69034;49.444;7.758;2023-08-20T03:00:29;25.50;69.20
79571;DHT22;69034;49.444;7.758;2023-08-20T03:04:29;25.50;69.10
79571;DHT22;69034;49.444;7.758;2023-08-20T03:08:30;25.50;69.10
79571;DHT22;69034;49.444;7.758;2023-08-20T03:12:31;25.50;69.10
79571;DHT22;69034;49.444;7.758;2023-08-20T03:16:31;25.40;69.20
79571;DHT22;69034;49.444;7.758;2023-08-20T03:20:32;25.40;69.20
79571;DHT22;69034;49.444;7.758;2023-08-20T03:24:32;25.40;69.10
79571;DHT22;69034;49.444;7.758;2023-08-20T03:28:33;25.50;68.90
79571;DHT22;69034;49.444;7.758;2023-08-20T03:32:34;25.50;68.80
79571;DHT22;69034;49.444;7.758;2023-08-20T03:36:34;25.50;68.80
79571;DHT22;69034;49.444;7.758;2023-08-20T03:40:35;25.60;68.60
79571;DHT22;69034;49.444;7.758;2023-08-20T03:44:35;25.60;68.50
79571;DHT22;69034;49.444;7.758;2023-08-20T03:48:36;25.60;68.50
79571;DHT22;69034;49.444;7.758;2023-08-20T03:52:37;25.60;68.50
79571;DHT22;69034;49.444;7.758;2023-08-20T03:56:37;25.60;68.40
79571;DHT22;69034;49.444;7.758;2023-08-20T04:00:38;25.60;68.40
79571;DHT22;69034;49.444;7.758;2023-08-20T04:04:38;25.60;68.40
79571;DHT22;69034;49.444;7.758;2023-08-20T04:08:39;25.60;68.30
79571;DHT22;69034;49.444;7.758;2023-08-20T04:12:40;25.60;68.30
79571;DHT22;69034;49.444;7.758;2023-08-20T04:16:41;25.60;68.20
79571;DHT22;69034;49.444;7.758;2023-08-20T04:20:42;25.60;68.20
79571;DHT22;69034;49.444;7.758;2023-08-20T04:24:42;25.50;68.30
79571;DHT22;69034;49.444;7.758;2023-08-20T04:28:43;25.50;68.30
79571;DHT22;69034;49.444;7.758;2023-08-20T04:32:43;25.50;68.20
79571;DHT22;69034;49.444;7.758;2023-08-20T04:36:44;25.60;68.10
79571;DHT22;69034;49.444;7.758;2023-08-20T04:40:48;25.60;68.00
79571;DHT22;69034;49.444;7.758;2023-08-20T04:44:49;25.60;68.00
79571;DHT22;69034;49.444;7.758;2023-08-20T04:48:50;25.60;67.90
79571;DHT22;69034;49.444;7.758;2023-08-20T04:52:50;25.50;68.00
79571;DHT22;69034;49.444;7.758;2023-08-20T04:56:51;25.50;68.00
79571;DHT22;69034;49.444;7.758;2023-08-20T05:00:51;25.50;68.00
79571;DHT22;69034;49.444;7.758;2023-08-20T05:04:52;25.40;68.20
79571;DHT22;69034;49.444;7.758;2023-08-20T05:08:53;25.50;68.00
79571;DHT22;69034;49.444;7.758;2023-08-20T05:12:53;25.70;67.50
79571;DHT22;69034;49.444;7.758;2023-08-20T05:16:54;25.90;67.20
79571;DHT22;69034;49.444;7.758;2023-08-20T05:20:54;25.90;67.10
79571;DHT22;69034;49.444;7.758;2023-08-20T05:24:55;25.90;67.00
79571;DHT22;69034;49.444;7.758;2023-08-20T05:28:56;25.90;66.80
79571;DHT22;69034;49.444;7.758;2023-08-20T05:32:56;25.90;66.80
79571;DHT22;69034;49.444;7.758;2023-08-20T05:36:57;25.90;66.60
79571;DHT22;69034;49.444;7.758;2023-08-20T05:40:57;25.90;66.80
79571;DHT22;69034;49.444;7.758;2023-08-20T05:44:58;25.80;66.90
79571;DHT22;69034;49.444;7.758;2023-08-20T05:48:59;25.70;67.00
79571;DHT22;69034;49.444;7.758;2023-08-20T05:53:00;25.70;67.10
79571;DHT22;69034;49.444;7.758;2023-08-20T05:57:01;25.70;67.10
79571;DHT22;69034;49.444;7.758;2023-08-20T06:01:02;25.60;67.20
79571;DHT22;69034;49.444;7.758;2023-08-20T06:05:04;25.60;67.20
79571;DHT22;69034;49.444;7.758;2023-08-20T06:09:05;25.60;67.10
79571;DHT22;69034;49.444;7.758;2023-08-20T06:13:05;25.60;67.10
79571;DHT22;69034;49.444;7.758;2023-08-20T06:17:06;25.70;67.00
79571;DHT22;69034;49.444;7.758;2023-08-20T06:21:07;25.70;67.00
79571;DHT22;69034;49.444;7.758;2023-08-20T06:25:08;25.70;66.90
79571;DHT22;69034;49.444;7.758;2023-08-20T06:29:08;25.80;66.80
79571;DHT22;69034;49.444;7.758;2023-08-20T06:33:09;25.90;66.80
79571;DHT22;69034;49.444;7.758;2023-08-20T06:37:10;26.10;66.40
79571;DHT22;69034;49.444;7.758;2023-08-20T06:41:10;26.30;66.00
79571;DHT22;69034;49.444;7.758;2023-08-20T06:45:11;26.50;65.60
79571;DHT22;69034;49.444;7.758;2023-08-20T06:49:11;26.70;65.40
79571;DHT22;69034;49.444;7.758;2023-08-20T06:53:12;26.90;65.00
79571;DHT22;69034;49.444;7.758;2023-08-20T06:57:13;27.10;64.70
79571;DHT22;69034;49.444;7.758;2023-08-20T07:01:13;27.30;64.40
79571;DHT22;69034;49.444;7.758;2023-08-20T07:05:14;27.60;64.10
79571;DHT22;69034;49.444;7.758;2023-08-20T07:09:15;27.90;63.70
79571;DHT22;69034;49.444;7.758;2023-08-20T07:13:16;28.20;63.20
79571;DHT22;69034;49.444;7.758;2023-08-20T07:17:18;28.50;62.80
79571;DHT22;69034;49.444;7.758;2023-08-20T07:21:19;28.80;62.20
79571;DHT22;69034;49.444;7.758;2023-08-20T07:25:19;29.10;61.60
79571;DHT22;69034;49.444;7.758;2023-08-20T07:29:20;29.30;61.40
79571;DHT22;69034;49.444;7.758;2023-08-20T07:33:24;29.50;61.10
79571;DHT22;69034;49.444;7.758;2023-08-20T07:37:24;29.80;60.80
79571;DHT22;69034;49.444;7.758;2023-08-20T07:41:25;30.00;60.40
79571;DHT22;69034;49.444;7.758;2023-08-20T07:45:25;30.40;59.80
79571;DHT22;69034;49.444;7.758;2023-08-20T07:49:26;30.60;59.20
79571;DHT22;69034;49.444;7.758;2023-08-20T07:53:27;30.90;58.90
79571;DHT22;69034;49.444;7.758;2023-08-20T07:57:27;31.20;58.30
79571;DHT22;69034;49.444;7.758;2023-08-20T08:01:28;31.40;57.70
79571;DHT22;69034;49.444;7.758;2023-08-20T08:05:29;31.60;57.30
79571;DHT22;69034;49.444;7.758;2023-08-20T08:09:30;31.80;56.90
79571;DHT22;69034;49.444;7.758;2023-08-20T08:13:31;32.10;56.40
79571;DHT22;69034;49.444;7.758;2023-08-20T08:17:32;32.40;56.00
79571;DHT22;69034;49.444;7.758;2023-08-20T08:21:33;32.60;55.50
79571;DHT22;69034;49.444;7.758;2023-08-20T08:25:34;32.90;55.00
79571;DHT22;69034;49.444;7.758;2023-08-20T08:29:35;33.20;54.70
79571;DHT22;69034;49.444;7.758;2023-08-20T08:33:35;33.40;54.00
79571;DHT22;69034;49.444;7.758;2023-08-20T08:37:36;33.50;53.80
79571;DHT22;69034;49.444;7.758;2023-08-20T08:41:39;33.90;53.30
79571;DHT22;69034;49.444;7.758;2023-08-20T08:45:46;34.10;52.90
79571;DHT22;69034;49.444;7.758;2023-08-20T08:49:48;34.30;52.30
79571;DHT22;69034;49.444;7.758;2023-08-20T08:53:50;34.50;51.90
79571;DHT22;69034;49.444;7.758;2023-08-20T08:57:52;34.70;51.10
79571;DHT22;69034;49.444;7.758;2023-08-20T09:01:52;34.90;50.90
79571;DHT22;69034;49.444;7.758;2023-08-20T09:06:00;35.10;50.40
79571;DHT22;69034;49.444;7.758;2023-08-20T09:10:03;35.30;49.20
79571;DHT22;69034;49.444;7.758;2023-08-20T09:14:04;35.40;49.10
79571;DHT22;69034;49.444;7.758;2023-08-20T09:18:04;35.60;48.50
79571;DHT22;69034;49.444;7.758;2023-08-20T09:22:10;35.90;47.80
79571;DHT22;69034;49.444;7.758;2023-08-20T09:26:11;36.10;47.30
79571;DHT22;69034;49.444;7.758;2023-08-20T09:30:18;36.30;46.50
79571;DHT22;69034;49.444;7.758;2023-08-20T09:34:20;36.50;46.10
79571;DHT22;69034;49.444;7.758;2023-08-20T09:38:23;36.80;45.20
79571;DHT22;69034;49.444;7.758;2023-08-20T09:42:25;37.00;44.80
79571;DHT22;69034;49.444;7.758;2023-08-20T09:46:31;37.20;44.40
79571;DHT22;69034;49.444;7.758;2023-08-20T09:50:35;37.60;44.20
79571;DHT22;69034;49.444;7.758;2023-08-20T09:55:06;38.00;43.80
79571;DHT22;69034;49.444;7.758;2023-08-20T09:59:10;38.40;43.70
79571;DHT22;69034;49.444;7.758;2023-08-20T10:03:11;38.70;42.90
79571;DHT22;69034;49.444;7.758;2023-08-20T10:07:12;39.20;41.80
79571;DHT22;69034;49.444;7.758;2023-08-20T10:11:13;39.60;40.60
79571;DHT22;69034;49.444;7.758;2023-08-20T10:15:14;40.30;39.50
79571;DHT22;69034;49.444;7.758;2023-08-20T10:19:16;40.60;38.30
79571;DHT22;69034;49.444;7.758;2023-08-20T10:23:22;40.80;37.40
79571;DHT22;69034;49.444;7.758;2023-08-20T10:27:31;41.10;36.30
79571;DHT22;69034;49.444;7.758;2023-08-20T10:31:32;41.50;36.10
79571;DHT22;69034;49.444;7.758;2023-08-20T10:39:40;42.70;35.40
79571;DHT22;69034;49.444;7.758;2023-08-20T10:43:47;43.30;34.20
79571;DHT22;69034;49.444;7.758;2023-08-20T10:47:49;44.00;33.10
79571;DHT22;69034;49.444;7.758;2023-08-20T10:51:50;44.60;32.60
79571;DHT22;69034;49.444;7.758;2023-08-20T10:55:50;45.30;32.00
79571;DHT22;69034;49.444;7.758;2023-08-20T11:00:03;46.00;31.10
79571;DHT22;69034;49.444;7.758;2023-08-20T11:04:19;46.70;29.80
79571;DHT22;69034;49.444;7.758;2023-08-20T11:08:20;47.30;29.60
79571;DHT22;69034;49.444;7.758;2023-08-20T11:12:22;47.90;28.60
79571;DHT22;69034;49.444;7.758;2023-08-20T11:16:22;48.30;28.00
79571;DHT22;69034;49.444;7.758;2023-08-20T11:20:23;48.60;27.20
79571;DHT22;69034;49.444;7.758;2023-08-20T11:24:28;49.00;27.00
79571;DHT22;69034;49.444;7.758;2023-08-20T11:28:29;49.40;26.50
79571;DHT22;69034;49.444;7.758;2023-08-20T11:32:31;49.60;26.00
79571;DHT22;69034;49.444;7.758;2023-08-20T11:36:32;49.70;25.40
79571;DHT22;69034;49.444;7.758;2023-08-20T11:40:32;50.20;25.40
79571;DHT22;69034;49.444;7.758;2023-08-20T11:44:42;49.30;25.80
79571;DHT22;69034;49.444;7.758;2023-08-20T11:49:06;49.90;25.20
79571;DHT22;69034;49.444;7.758;2023-08-20T11:53:08;50.80;24.30
79571;DHT22;69034;49.444;7.758;2023-08-20T11:57:10;51.50;19.80
79571;DHT22;69034;49.444;7.758;2023-08-20T12:01:14;51.30;19.90
79571;DHT22;69034;49.444;7.758;2023-08-20T12:05:18;51.40;19.80
79571;DHT22;69034;49.444;7.758;2023-08-20T12:09:23;51.60;18.90
79571;DHT22;69034;49.444;7.758;2023-08-20T12:13:25;51.90;18.90
79571;DHT22;69034;49.444;7.758;2023-08-20T12:17:25;52.00;19.40
79571;DHT22;69034;49.444;7.758;2023-08-20T12:21:27;52.30;19.60
79571;DHT22;69034;49.444;7.758;2023-08-20T12:25:30;52.90;19.50
79571;DHT22;69034;49.444;7.758;2023-08-20T12:29:32;53.30;19.30
79571;DHT22;69034;49.444;7.758;2023-08-20T12:33:33;52.60;19.20
79571;DHT22;69034;49.444;7.758;2023-08-20T12:37:33;50.60;24.40
79571;DHT22;69034;49.444;7.758;2023-08-20T12:41:34;51.30;24.00
79571;DHT22;69034;49.444;7.758;2023-08-20T12:45:38;53.00;19.00
79571;DHT22;69034;49.444;7.758;2023-08-20T12:49:39;54.50;18.30
79571;DHT22;69034;49.444;7.758;2023-08-20T12:53:40;52.60;18.70
79571;DHT22;69034;49.444;7.758;2023-08-20T12:57:53;52.60;18.80
79571;DHT22;69034;49.444;7.758;2023-08-20T13:01:54;53.60;18.00
79571;DHT22;69034;49.444;7.758;2023-08-20T13:05:55;54.20;17.60
79571;DHT22;69034;49.444;7.758;2023-08-20T13:09:59;54.40;17.70
79571;DHT22;69034;49.444;7.758;2023-08-20T13:14:00;54.50;17.30
79571;DHT22;69034;49.444;7.758;2023-08-20T13:18:07;54.90;16.60
79571;DHT22;69034;49.444;7.758;2023-08-20T13:22:08;54.90;16.70
79571;DHT22;69034;49.444;7.758;2023-08-20T13:26:08;54.90;16.60
79571;DHT22;69034;49.444;7.758;2023-08-20T13:30:12;54.60;16.80
79571;DHT22;69034;49.444;7.758;2023-08-20T13:34:13;52.10;17.60
79571;DHT22;69034;49.444;7.758;2023-08-20T13:38:14;51.30;18.10
79571;DHT22;69034;49.444;7.758;2023-08-20T13:42:16;52.40;17.60
79571;DHT22;69034;49.444;7.758;2023-08-20T13:46:16;53.90;17.00
79571;DHT22;69034;49.444;7.758;2023-08-20T13:50:17;53.40;16.90
79571;DHT22;69034;49.444;7.758;2023-08-20T13:54:18;52.50;17.80
79571;DHT22;69034;49.444;7.758;2023-08-20T13:58:19;54.60;16.80
79571;DHT22;69034;49.444;7.758;2023-08-20T14:02:19;55.30;16.30
79571;DHT22;69034;49.444;7.758;2023-08-20T14:06:20;55.50;16.30
79571;DHT22;69034;49.444;7.758;2023-08-20T14:10:21;55.70;16.10
79571;DHT22;69034;49.444;7.758;2023-08-20T14:14:21;56.00;16.10
79571;DHT22;69034;49.444;7.758;2023-08-20T14:18:23;56.20;15.90
79571;DHT22;69034;49.444;7.758;2023-08-20T14:22:24;56.40;15.90
79571;DHT22;69034;49.444;7.758;2023-08-20T14:26:25;56.20;15.80
79571;DHT22;69034;49.444;7.758;2023-08-20T14:30:27;55.70;15.50
79571;DHT22;69034;49.444;7.758;2023-08-20T14:34:28;56.00;15.40
79571;DHT22;69034;49.444;7.758;2023-08-20T14:38:31;56.00;15.30
79571;DHT22;69034;49.444;7.758;2023-08-20T14:42:32;55.90;15.50
79571;DHT22;69034;49.444;7.758;2023-08-20T14:46:34;56.30;15.50
79571;DHT22;69034;49.444;7.758;2023-08-20T14:50:35;56.10;15.40
79571;DHT22;69034;49.444;7.758;2023-08-20T14:54:37;55.80;15.30
79571;DHT22;69034;49.444;7.758;2023-08-20T14:58:37;55.90;15.30
79571;DHT22;69034;49.444;7.758;2023-08-20T15:02:38;56.00;15.20
79571;DHT22;69034;49.444;7.758;2023-08-20T15:06:39;55.70;15.10
79571;DHT22;69034;49.444;7.758;2023-08-20T15:10:39;55.90;15.30
79571;DHT22;69034;49.444;7.758;2023-08-20T15:14:40;55.60;15.10
79571;DHT22;69034;49.444;7.758;2023-08-20T15:18:40;54.50;15.50
79571;DHT22;69034;49.444;7.758;2023-08-20T15:22:42;54.50;15.70
79571;DHT22;69034;49.444;7.758;2023-08-20T15:26:42;54.00;15.60
79571;DHT22;69034;49.444;7.758;2023-08-20T15:30:43;53.00;16.10
79571;DHT22;69034;49.444;7.758;2023-08-20T15:34:43;52.60;16.30
79571;DHT22;69034;49.444;7.758;2023-08-20T15:38:47;52.40;16.50
79571;DHT22;69034;49.444;7.758;2023-08-20T15:42:48;52.10;16.70
79571;DHT22;69034;49.444;7.758;2023-08-20T15:46:48;51.40;16.80
79571;DHT22;69034;49.444;7.758;2023-08-20T15:50:49;50.80;17.10
79571;DHT22;69034;49.444;7.758;2023-08-20T15:54:50;50.40;17.40
79571;DHT22;69034;49.444;7.758;2023-08-20T15:58:50;50.40;17.50
79571;DHT22;69034;49.444;7.758;2023-08-20T16:02:51;50.30;17.70
79571;DHT22;69034;49.444;7.758;2023-08-20T16:06:52;50.10;17.90
79571;DHT22;69034;49.444;7.758;2023-08-20T16:10:52;50.00;18.00
79571;DHT22;69034;49.444;7.758;2023-08-20T16:14:53;50.00;18.00
79571;DHT22;69034;49.444;7.758;2023-08-20T16:18:54;49.20;18.40
79571;DHT22;69034;49.444;7.758;2023-08-20T16:22:54;48.50;18.60
79571;DHT22;69034;49.444;7.758;2023-08-20T16:26:55;48.30;18.90
79571;DHT22;69034;49.444;7.758;2023-08-20T16:30:56;48.10;19.10
79571;DHT22;69034;49.444;7.758;2023-08-20T16:34:58;47.80;19.30
79571;DHT22;69034;49.444;7.758;2023-08-20T16:38:59;47.30;19.60
79571;DHT22;69034;49.444;7.758;2023-08-20T16:42:59;46.80;19.80
79571;DHT22;69034;49.444;7.758;2023-08-20T16:47:03;46.40;24.20
79571;DHT22;69034;49.444;7.758;2023-08-20T16:51:04;46.20;24.40
79571;DHT22;69034;49.444;7.758;2023-08-20T16:55:05;45.70;24.60
79571;DHT22;69034;49.444;7.758;2023-08-20T16:59:06;45.40;25.00
79571;DHT22;69034;49.444;7.758;2023-08-20T17:03:07;45.00;25.20
79571;DHT22;69034;49.444;7.758;2023-08-20T17:07:07;44.70;25.60
79571;DHT22;69034;49.444;7.758;2023-08-20T17:11:09;44.40;25.80
79571;DHT22;69034;49.444;7.758;2023-08-20T17:15:12;44.10;26.00
79571;DHT22;69034;49.444;7.758;2023-08-20T17:19:12;43.60;26.40
79571;DHT22;69034;49.444;7.758;2023-08-20T17:23:13;43.10;26.90
79571;DHT22;69034;49.444;7.758;2023-08-20T17:27:15;42.70;27.20
79571;DHT22;69034;49.444;7.758;2023-08-20T17:31:16;42.30;27.60
79571;DHT22;69034;49.444;7.758;2023-08-20T17:35:17;41.90;28.10
79571;DHT22;69034;49.444;7.758;2023-08-20T17:39:18;41.50;28.50
79571;DHT22;69034;49.444;7.758;2023-08-20T17:43:20;41.10;29.10
79571;DHT22;69034;49.444;7.758;2023-08-20T17:47:20;40.60;29.70
79571;DHT22;69034;49.444;7.758;2023-08-20T17:51:21;40.20;30.20
79571;DHT22;69034;49.444;7.758;2023-08-20T17:55:22;39.70;30.80
79571;DHT22;69034;49.444;7.758;2023-08-20T17:59:22;39.30;31.30
79571;DHT22;69034;49.444;7.758;2023-08-20T18:03:24;38.80;31.90
79571;DHT22;69034;49.444;7.758;2023-08-20T18:07:25;38.20;32.70
79571;DHT22;69034;49.444;7.758;2023-08-20T18:11:25;37.70;33.50
79571;DHT22;69034;49.444;7.758;2023-08-20T18:15:26;37.10;34.20
79571;DHT22;69034;49.444;7.758;2023-08-20T18:19:27;36.70;35.00
79571;DHT22;69034;49.444;7.758;2023-08-20T18:23:28;36.30;35.90
79571;DHT22;69034;49.444;7.758;2023-08-20T18:27:29;36.00;36.60
79571;DHT22;69034;49.444;7.758;2023-08-20T18:31:29;35.60;37.50
79571;DHT22;69034;49.444;7.758;2023-08-20T18:35:30;35.20;38.70
79571;DHT22;69034;49.444;7.758;2023-08-20T18:39:31;34.80;39.50
79571;DHT22;69034;49.444;7.758;2023-08-20T18:43:32;34.50;39.90
79571;DHT22;69034;49.444;7.758;2023-08-20T18:47:33;34.30;40.40
79571;DHT22;69034;49.444;7.758;2023-08-20T18:51:34;34.10;40.90
79571;DHT22;69034;49.444;7.758;2023-08-20T18:55:34;33.90;41.40
79571;DHT22;69034;49.444;7.758;2023-08-20T18:59:36;33.70;42.00
79571;DHT22;69034;49.444;7.758;2023-08-20T19:03:37;33.60;42.60
79571;DHT22;69034;49.444;7.758;2023-08-20T19:07:38;33.40;43.10
79571;DHT22;69034;49.444;7.758;2023-08-20T19:11:44;33.20;43.80
79571;DHT22;69034;49.444;7.758;2023-08-20T19:15:49;33.00;44.40
79571;DHT22;69034;49.444;7.758;2023-08-20T19:19:50;32.80;44.90
79571;DHT22;69034;49.444;7.758;2023-08-20T19:23:50;32.60;45.30
79571;DHT22;69034;49.444;7.758;2023-08-20T19:27:52;32.50;45.70
79571;DHT22;69034;49.444;7.758;2023-08-20T19:31:53;32.40;46.10
79571;DHT22;69034;49.444;7.758;2023-08-20T19:35:54;32.20;46.50
79571;DHT22;69034;49.444;7.758;2023-08-20T19:39:55;32.10;46.90
79571;DHT22;69034;49.444;7.758;2023-08-20T19:43:55;32.00;47.30
79571;DHT22;69034;49.444;7.758;2023-08-20T19:47:56;31.90;47.70
79571;DHT22;69034;49.444;7.758;2023-08-20T19:51:57;31.80;48.00
79571;DHT22;69034;49.444;7.758;2023-08-20T19:55:57;31.70;48.40
79571;DHT22;69034;49.444;7.758;2023-08-20T19:59:58;31.60;48.90
79571;DHT22;69034;49.444;7.758;2023-08-20T20:03:59;31.50;49.20
79571;DHT22;69034;49.444;7.758;2023-08-20T20:07:59;31.40;49.40
79571;DHT22;69034;49.444;7.758;2023-08-20T20:12:00;31.20;50.10
79571;DHT22;69034;49.444;7.758;2023-08-20T20:16:01;31.10;50.30
79571;DHT22;69034;49.444;7.758;2023-08-20T20:20:02;31.00;50.50
79571;DHT22;69034;49.444;7.758;2023-08-20T20:24:10;30.90;50.70
79571;DHT22;69034;49.444;7.758;2023-08-20T20:28:11;30.90;50.90
79571;DHT22;69034;49.444;7.758;2023-08-20T20:32:14;30.80;51.10
79571;DHT22;69034;49.444;7.758;2023-08-20T20:36:15;30.80;51.20
79571;DHT22;69034;49.444;7.758;2023-08-20T20:40:15;30.70;51.50
79571;DHT22;69034;49.444;7.758;2023-08-20T20:44:16;30.70;51.60
79571;DHT22;69034;49.444;7.758;2023-08-20T20:48:17;30.60;52.10
79571;DHT22;69034;49.444;7.758;2023-08-20T20:52:17;30.50;52.30
79571;DHT22;69034;49.444;7.758;2023-08-20T20:56:18;30.40;52.60
79571;DHT22;69034;49.444;7.758;2023-08-20T21:00:19;30.30;53.10
79571;DHT22;69034;49.444;7.758;2023-08-20T21:04:19;30.20;53.60
79571;DHT22;69034;49.444;7.758;2023-08-20T21:08:20;30.20;53.90
79571;DHT22;69034;49.444;7.758;2023-08-20T21:12:20;30.10;54.00
79571;DHT22;69034;49.444;7.758;2023-08-20T21:16:21;30.10;54.00
79571;DHT22;69034;49.444;7.758;2023-08-20T21:20:22;30.20;53.80
79571;DHT22;69034;49.444;7.758;2023-08-20T21:24:22;30.20;53.80
79571;DHT22;69034;49.444;7.758;2023-08-20T21:28:23;30.20;53.70
79571;DHT22;69034;49.444;7.758;2023-08-20T21:32:23;30.20;53.80
79571;DHT22;69034;49.444;7.758;2023-08-20T21:36:24;30.20;53.80
79571;DHT22;69034;49.444;7.758;2023-08-20T21:40:25;30.10;54.00
79571;DHT22;69034;49.444;7.758;2023-08-20T21:44:25;30.10;54.00
79571;DHT22;69034;49.444;7.758;2023-08-20T21:48:27;30.00;54.10
79571;DHT22;69034;49.444;7.758;2023-08-20T21:52:28;30.00;54.20
79571;DHT22;69034;49.444;7.758;2023-08-20T21:56:29;30.00;54.40
79571;DHT22;69034;49.444;7.758;2023-08-20T22:00:30;29.90;54.50
79571;DHT22;69034;49.444;7.758;2023-08-20T22:04:31;29.90;54.80
79571;DHT22;69034;49.444;7.758;2023-08-20T22:08:32;29.80;55.10
79571;DHT22;69034;49.444;7.758;2023-08-20T22:12:33;29.70;55.40
79571;DHT22;69034;49.444;7.758;2023-08-20T22:16:34;29.70;55.40
79571;DHT22;69034;49.444;7.758;2023-08-20T22:20:34;29.60;55.90
79571;DHT22;69034;49.444;7.758;2023-08-20T22:24:35;29.40;56.10
79571;DHT22;69034;49.444;7.758;2023-08-20T22:28:36;29.30;56.30
79571;DHT22;69034;49.444;7.758;2023-08-20T22:32:36;29.20;56.60
79571;DHT22;69034;49.444;7.758;2023-08-20T22:36:37;29.10;56.80
79571;DHT22;69034;49.444;7.758;2023-08-20T22:40:39;29.00;57.00
79571;DHT22;69034;49.444;7.758;2023-08-20T22:44:40;29.00;57.00
79571;DHT22;69034;49.444;7.758;2023-08-20T22:48:41;28.90;57.10
79571;DHT22;69034;49.444;7.758;2023-08-20T22:52:43;28.90;57.30
79571;DHT22;69034;49.444;7.758;2023-08-20T22:56:44;28.80;57.40
79571;DHT22;69034;49.444;7.758;2023-08-20T23:00:46;28.50;57.80
79571;DHT22;69034;49.444;7.758;2023-08-20T23:04:47;28.30;58.10
79571;DHT22;69034;49.444;7.758;2023-08-20T23:08:47;28.20;58.20
79571;DHT22;69034;49.444;7.758;2023-08-20T23:12:49;28.00;58.50
79571;DHT22;69034;49.444;7.758;2023-08-20T23:16:50;27.90;58.80
79571;DHT22;69034;49.444;7.758;2023-08-20T23:21:00;27.80;59.10
79571;DHT22;69034;49.444;7.758;2023-08-20T23:25:01;27.70;59.40
79571;DHT22;69034;49.444;7.758;2023-08-20T23:29:02;27.60;59.50
79571;DHT22;69034;49.444;7.758;2023-08-20T23:33:04;27.50;59.70
79571;DHT22;69034;49.444;7.758;2023-08-20T23:37:04;27.40;60.00
79571;DHT22;69034;49.444;7.758;2023-08-20T23:41:06;27.40;60.20
79571;DHT22;69034;49.444;7.758;2023-08-20T23:45:07;27.30;60.50
79571;DHT22;69034;49.444;7.758;2023-08-20T23:49:10;27.20;60.70
79571;DHT22;69034;49.444;7.758;2023-08-20T23:53:10;27.10;60.90
79571;DHT22;69034;49.444;7.758;2023-08-20T23:57:11;27.00;61.00
